sensor_id;sensor_type;location;lat;lon;timestamp;P1;durP1;ratioP1;P2;durP2;ratioP2
21036;SDS011;10677;50.942;4.028;2023-03-01T00:01:25;16.98;;;10.20;;
21036;SDS011;10677;50.942;4.028;2023-03-01T00:03:56;20.15;;;10.73;;
21036;SDS011;10677;50.942;4.028;2023-03-01T00:06:22;16.83;;;10.27;;
21036;SDS011;10677;50.942;4.028;2023-03-01T00:08:48;18.55;;;10.60;;
21036;SDS011;10677;50.942;4.028;2023-03-01T00:11:18;17.58;;;10.63;;
21036;SDS011;10677;50.942;4.028;2023-03-01T00:13:47;19.67;;;10.65;;
21036;SDS011;10677;50.942;4.028;2023-03-01T00:16:17;18.38;;;10.13;;
21036;SDS011;10677;50.942;4.028;2023-03-01T00:18:44;19.30;;;10.93;;
21036;SDS011;10677;50.942;4.028;2023-03-01T00:21:10;19.88;;;10.35;;
21036;SDS011;10677;50.942;4.028;2023-03-01T00:23:36;17.98;;;10.30;;
21036;SDS011;10677;50.942;4.028;2023-03-01T00:26:05;18.08;;;10.25;;
21036;SDS011;10677;50.942;4.028;2023-03-01T00:28:33;20.48;;;10.85;;
21036;SDS011;10677;50.942;4.028;2023-03-01T00:31:06;18.70;;;9.45;;
21036;SDS011;10677;50.942;4.028;2023-03-01T00:33:37;19.48;;;10.35;;
21036;SDS011;10677;50.942;4.028;2023-03-01T00:36:02;16.02;;;10.70;;
21036;SDS011;10677;50.942;4.028;2023-03-01T00:38:29;17.17;;;10.60;;
21036;SDS011;10677;50.942;4.028;2023-03-01T00:40:54;19.02;;;10.98;;
21036;SDS011;10677;50.942;4.028;2023-03-01T00:43:21;17.85;;;10.50;;
21036;SDS011;10677;50.942;4.028;2023-03-01T00:45:46;18.60;;;11.30;;
21036;SDS011;10677;50.942;4.028;2023-03-01T00:48:12;22.13;;;11.18;;
21036;SDS011;10677;50.942;4.028;2023-03-01T00:50:38;17.48;;;10.30;;
21036;SDS011;10677;50.942;4.028;2023-03-01T00:53:03;20.73;;;11.55;;
21036;SDS011;10677;50.942;4.028;2023-03-01T00:55:30;20.13;;;11.60;;
21036;SDS011;10677;50.942;4.028;2023-03-01T00:57:56;19.33;;;11.63;;
21036;SDS011;10677;50.942;4.028;2023-03-01T01:00:21;22.83;;;11.35;;
21036;SDS011;10677;50.942;4.028;2023-03-01T01:02:47;17.40;;;10.45;;
21036;SDS011;10677;50.942;4.028;2023-03-01T01:05:13;20.35;;;11.55;;
21036;SDS011;10677;50.942;4.028;2023-03-01T01:07:39;20.33;;;11.27;;
21036;SDS011;10677;50.942;4.028;2023-03-01T01:10:05;18.55;;;11.07;;
21036;SDS011;10677;50.942;4.028;2023-03-01T01:12:31;19.90;;;11.27;;
21036;SDS011;10677;50.942;4.028;2023-03-01T01:14:57;17.67;;;10.70;;
21036;SDS011;10677;50.942;4.028;2023-03-01T01:17:23;17.55;;;10.45;;
21036;SDS011;10677;50.942;4.028;2023-03-01T01:19:49;19.63;;;11.02;;
21036;SDS011;10677;50.942;4.028;2023-03-01T01:22:14;19.25;;;10.85;;
21036;SDS011;10677;50.942;4.028;2023-03-01T01:24:40;16.70;;;10.30;;
21036;SDS011;10677;50.942;4.028;2023-03-01T01:27:06;21.95;;;10.43;;
21036;SDS011;10677;50.942;4.028;2023-03-01T01:29:32;20.42;;;10.57;;
21036;SDS011;10677;50.942;4.028;2023-03-01T01:31:58;18.58;;;10.35;;
21036;SDS011;10677;50.942;4.028;2023-03-01T01:34:23;17.92;;;10.23;;
21036;SDS011;10677;50.942;4.028;2023-03-01T01:36:50;16.33;;;9.77;;
21036;SDS011;10677;50.942;4.028;2023-03-01T01:39:18;17.45;;;10.40;;
21036;SDS011;10677;50.942;4.028;2023-03-01T01:41:45;16.52;;;9.65;;
21036;SDS011;10677;50.942;4.028;2023-03-01T01:44:15;22.02;;;11.40;;
21036;SDS011;10677;50.942;4.028;2023-03-01T01:46:50;16.65;;;10.02;;
21036;SDS011;10677;50.942;4.028;2023-03-01T01:51:55;16.90;;;9.70;;
21036;SDS011;10677;50.942;4.028;2023-03-01T01:54:31;16.05;;;9.02;;
21036;SDS011;10677;50.942;4.028;2023-03-01T01:57:13;18.08;;;8.98;;
21036;SDS011;10677;50.942;4.028;2023-03-01T01:59:43;17.88;;;9.55;;
21036;SDS011;10677;50.942;4.028;2023-03-01T02:02:11;18.70;;;9.65;;
21036;SDS011;10677;50.942;4.028;2023-03-01T02:04:37;20.25;;;9.65;;
21036;SDS011;10677;50.942;4.028;2023-03-01T02:07:06;15.35;;;8.45;;
21036;SDS011;10677;50.942;4.028;2023-03-01T02:09:42;16.27;;;9.48;;
21036;SDS011;10677;50.942;4.028;2023-03-01T02:12:11;15.70;;;9.35;;
21036;SDS011;10677;50.942;4.028;2023-03-01T02:14:39;16.33;;;9.60;;
21036;SDS011;10677;50.942;4.028;2023-03-01T02:17:05;15.82;;;8.98;;
21036;SDS011;10677;50.942;4.028;2023-03-01T02:19:33;16.30;;;9.43;;
21036;SDS011;10677;50.942;4.028;2023-03-01T02:24:49;16.70;;;9.35;;
21036;SDS011;10677;50.942;4.028;2023-03-01T02:27:16;17.05;;;9.40;;
21036;SDS011;10677;50.942;4.028;2023-03-01T02:29:47;15.18;;;9.00;;
21036;SDS011;10677;50.942;4.028;2023-03-01T02:32:12;16.02;;;8.77;;
21036;SDS011;10677;50.942;4.028;2023-03-01T02:34:40;19.98;;;9.52;;
21036;SDS011;10677;50.942;4.028;2023-03-01T02:37:11;16.88;;;8.90;;
21036;SDS011;10677;50.942;4.028;2023-03-01T02:39:40;17.88;;;9.52;;
21036;SDS011;10677;50.942;4.028;2023-03-01T02:42:11;18.10;;;10.40;;
21036;SDS011;10677;50.942;4.028;2023-03-01T02:44:39;15.30;;;9.60;;
21036;SDS011;10677;50.942;4.028;2023-03-01T02:47:05;16.77;;;9.18;;
21036;SDS011;10677;50.942;4.028;2023-03-01T02:49:32;13.95;;;8.82;;
21036;SDS011;10677;50.942;4.028;2023-03-01T02:55:06;17.85;;;9.80;;
21036;SDS011;10677;50.942;4.028;2023-03-01T02:57:36;17.05;;;9.00;;
21036;SDS011;10677;50.942;4.028;2023-03-01T03:00:05;18.23;;;9.75;;
21036;SDS011;10677;50.942;4.028;2023-03-01T03:02:34;16.10;;;9.30;;
21036;SDS011;10677;50.942;4.028;2023-03-01T03:05:08;18.55;;;9.20;;
21036;SDS011;10677;50.942;4.028;2023-03-01T03:07:37;16.65;;;9.20;;
21036;SDS011;10677;50.942;4.028;2023-03-01T03:10:06;15.98;;;9.20;;
21036;SDS011;10677;50.942;4.028;2023-03-01T03:12:33;21.25;;;9.45;;
21036;SDS011;10677;50.942;4.028;2023-03-01T03:14:59;17.27;;;9.43;;
21036;SDS011;10677;50.942;4.028;2023-03-01T03:17:25;19.02;;;9.57;;
21036;SDS011;10677;50.942;4.028;2023-03-01T03:19:50;15.18;;;9.25;;
21036;SDS011;10677;50.942;4.028;2023-03-01T03:22:16;17.83;;;9.27;;
21036;SDS011;10677;50.942;4.028;2023-03-01T03:24:42;16.40;;;9.75;;
21036;SDS011;10677;50.942;4.028;2023-03-01T03:27:07;14.73;;;9.00;;
21036;SDS011;10677;50.942;4.028;2023-03-01T03:29:33;16.27;;;9.48;;
21036;SDS011;10677;50.942;4.028;2023-03-01T03:31:59;14.98;;;8.48;;
21036;SDS011;10677;50.942;4.028;2023-03-01T03:34:25;14.90;;;8.98;;
21036;SDS011;10677;50.942;4.028;2023-03-01T03:36:54;20.50;;;9.27;;
21036;SDS011;10677;50.942;4.028;2023-03-01T03:39:22;19.52;;;9.88;;
21036;SDS011;10677;50.942;4.028;2023-03-01T03:41:48;14.40;;;8.98;;
21036;SDS011;10677;50.942;4.028;2023-03-01T03:44:14;17.45;;;9.13;;
21036;SDS011;10677;50.942;4.028;2023-03-01T03:46:39;16.08;;;9.18;;
21036;SDS011;10677;50.942;4.028;2023-03-01T03:49:05;14.27;;;8.73;;
21036;SDS011;10677;50.942;4.028;2023-03-01T03:51:31;16.13;;;8.95;;
21036;SDS011;10677;50.942;4.028;2023-03-01T03:53:56;18.98;;;9.90;;
21036;SDS011;10677;50.942;4.028;2023-03-01T03:56:22;19.75;;;9.68;;
21036;SDS011;10677;50.942;4.028;2023-03-01T03:58:51;18.55;;;8.60;;
21036;SDS011;10677;50.942;4.028;2023-03-01T04:01:17;16.45;;;8.70;;
21036;SDS011;10677;50.942;4.028;2023-03-01T04:03:42;17.17;;;8.38;;
21036;SDS011;10677;50.942;4.028;2023-03-01T04:06:11;16.03;;;9.37;;
21036;SDS011;10677;50.942;4.028;2023-03-01T04:08:41;18.77;;;9.43;;
21036;SDS011;10677;50.942;4.028;2023-03-01T04:11:06;13.65;;;8.63;;
21036;SDS011;10677;50.942;4.028;2023-03-01T04:13:51;19.98;;;9.60;;
21036;SDS011;10677;50.942;4.028;2023-03-01T04:16:19;16.48;;;9.40;;
21036;SDS011;10677;50.942;4.028;2023-03-01T04:18:44;17.08;;;9.38;;
21036;SDS011;10677;50.942;4.028;2023-03-01T04:21:11;15.18;;;8.73;;
21036;SDS011;10677;50.942;4.028;2023-03-01T04:23:37;19.02;;;10.60;;
21036;SDS011;10677;50.942;4.028;2023-03-01T04:26:03;20.63;;;10.48;;
21036;SDS011;10677;50.942;4.028;2023-03-01T04:28:37;17.65;;;9.95;;
21036;SDS011;10677;50.942;4.028;2023-03-01T04:31:09;16.08;;;8.95;;
21036;SDS011;10677;50.942;4.028;2023-03-01T04:33:41;16.75;;;10.32;;
21036;SDS011;10677;50.942;4.028;2023-03-01T04:36:08;17.90;;;9.35;;
21036;SDS011;10677;50.942;4.028;2023-03-01T04:38:36;19.05;;;10.10;;
21036;SDS011;10677;50.942;4.028;2023-03-01T04:41:06;17.05;;;9.27;;
21036;SDS011;10677;50.942;4.028;2023-03-01T04:43:33;18.85;;;9.38;;
21036;SDS011;10677;50.942;4.028;2023-03-01T04:46:06;19.25;;;10.00;;
21036;SDS011;10677;50.942;4.028;2023-03-01T04:48:35;17.60;;;9.68;;
21036;SDS011;10677;50.942;4.028;2023-03-01T04:51:02;21.05;;;10.52;;
21036;SDS011;10677;50.942;4.028;2023-03-01T04:53:28;19.33;;;9.82;;
21036;SDS011;10677;50.942;4.028;2023-03-01T04:55:55;20.05;;;10.57;;
21036;SDS011;10677;50.942;4.028;2023-03-01T04:58:27;19.33;;;10.38;;
21036;SDS011;10677;50.942;4.028;2023-03-01T05:00:53;19.83;;;9.80;;
21036;SDS011;10677;50.942;4.028;2023-03-01T05:03:19;19.05;;;10.15;;
21036;SDS011;10677;50.942;4.028;2023-03-01T05:05:47;19.75;;;10.45;;
21036;SDS011;10677;50.942;4.028;2023-03-01T05:08:15;18.00;;;9.70;;
21036;SDS011;10677;50.942;4.028;2023-03-01T05:10:50;15.85;;;9.95;;
21036;SDS011;10677;50.942;4.028;2023-03-01T05:13:17;16.05;;;9.45;;
21036;SDS011;10677;50.942;4.028;2023-03-01T05:15:57;19.00;;;9.88;;
21036;SDS011;10677;50.942;4.028;2023-03-01T05:18:24;17.10;;;9.60;;
21036;SDS011;10677;50.942;4.028;2023-03-01T05:20:54;13.90;;;9.18;;
21036;SDS011;10677;50.942;4.028;2023-03-01T05:23:23;16.65;;;9.80;;
21036;SDS011;10677;50.942;4.028;2023-03-01T05:25:49;21.17;;;10.45;;
21036;SDS011;10677;50.942;4.028;2023-03-01T05:28:17;17.23;;;9.75;;
21036;SDS011;10677;50.942;4.028;2023-03-01T05:30:44;21.23;;;11.27;;
21036;SDS011;10677;50.942;4.028;2023-03-01T05:33:10;17.10;;;9.15;;
21036;SDS011;10677;50.942;4.028;2023-03-01T05:35:42;16.17;;;8.68;;
21036;SDS011;10677;50.942;4.028;2023-03-01T05:38:10;19.00;;;9.43;;
21036;SDS011;10677;50.942;4.028;2023-03-01T05:40:40;21.45;;;10.15;;
21036;SDS011;10677;50.942;4.028;2023-03-01T05:43:10;17.58;;;9.73;;
21036;SDS011;10677;50.942;4.028;2023-03-01T05:45:37;17.35;;;9.85;;
21036;SDS011;10677;50.942;4.028;2023-03-01T05:48:03;21.05;;;10.50;;
21036;SDS011;10677;50.942;4.028;2023-03-01T05:50:32;21.45;;;9.93;;
21036;SDS011;10677;50.942;4.028;2023-03-01T05:53:05;19.65;;;10.30;;
21036;SDS011;10677;50.942;4.028;2023-03-01T05:55:34;22.75;;;10.15;;
21036;SDS011;10677;50.942;4.028;2023-03-01T05:58:01;20.55;;;10.60;;
21036;SDS011;10677;50.942;4.028;2023-03-01T06:00:29;18.88;;;11.13;;
21036;SDS011;10677;50.942;4.028;2023-03-01T06:02:55;20.65;;;10.60;;
21036;SDS011;10677;50.942;4.028;2023-03-01T06:05:22;18.40;;;10.57;;
21036;SDS011;10677;50.942;4.028;2023-03-01T06:07:48;18.15;;;9.93;;
21036;SDS011;10677;50.942;4.028;2023-03-01T06:10:15;20.80;;;11.05;;
21036;SDS011;10677;50.942;4.028;2023-03-01T06:12:42;20.38;;;11.07;;
21036;SDS011;10677;50.942;4.028;2023-03-01T06:15:09;22.95;;;11.73;;
21036;SDS011;10677;50.942;4.028;2023-03-01T06:17:37;19.60;;;11.10;;
21036;SDS011;10677;50.942;4.028;2023-03-01T06:20:06;20.17;;;11.45;;
21036;SDS011;10677;50.942;4.028;2023-03-01T06:22:39;22.15;;;11.25;;
21036;SDS011;10677;50.942;4.028;2023-03-01T06:25:06;24.27;;;12.32;;
21036;SDS011;10677;50.942;4.028;2023-03-01T06:27:33;21.33;;;11.85;;
21036;SDS011;10677;50.942;4.028;2023-03-01T06:30:00;21.80;;;11.07;;
21036;SDS011;10677;50.942;4.028;2023-03-01T06:32:25;21.42;;;12.10;;
21036;SDS011;10677;50.942;4.028;2023-03-01T06:34:52;29.58;;;16.13;;
21036;SDS011;10677;50.942;4.028;2023-03-01T06:37:18;25.08;;;11.88;;
21036;SDS011;10677;50.942;4.028;2023-03-01T06:39:44;22.85;;;11.93;;
21036;SDS011;10677;50.942;4.028;2023-03-01T06:42:11;26.00;;;12.45;;
21036;SDS011;10677;50.942;4.028;2023-03-01T06:44:37;21.63;;;11.65;;
21036;SDS011;10677;50.942;4.028;2023-03-01T06:47:03;20.15;;;11.93;;
21036;SDS011;10677;50.942;4.028;2023-03-01T06:49:29;22.50;;;12.73;;
21036;SDS011;10677;50.942;4.028;2023-03-01T06:51:55;22.85;;;12.88;;
21036;SDS011;10677;50.942;4.028;2023-03-01T06:54:21;22.77;;;12.18;;
21036;SDS011;10677;50.942;4.028;2023-03-01T06:56:47;26.83;;;14.38;;
21036;SDS011;10677;50.942;4.028;2023-03-01T06:59:13;24.08;;;12.93;;
21036;SDS011;10677;50.942;4.028;2023-03-01T07:01:40;26.42;;;13.48;;
21036;SDS011;10677;50.942;4.028;2023-03-01T07:04:07;23.65;;;13.10;;
21036;SDS011;10677;50.942;4.028;2023-03-01T07:06:33;37.05;;;17.42;;
21036;SDS011;10677;50.942;4.028;2023-03-01T07:08:59;34.53;;;18.05;;
21036;SDS011;10677;50.942;4.028;2023-03-01T07:11:24;27.58;;;13.23;;
21036;SDS011;10677;50.942;4.028;2023-03-01T07:13:50;34.15;;;14.27;;
21036;SDS011;10677;50.942;4.028;2023-03-01T07:16:21;26.08;;;13.68;;
21036;SDS011;10677;50.942;4.028;2023-03-01T07:18:47;35.70;;;17.75;;
21036;SDS011;10677;50.942;4.028;2023-03-01T07:21:13;26.60;;;16.23;;
21036;SDS011;10677;50.942;4.028;2023-03-01T07:23:40;47.33;;;24.38;;
21036;SDS011;10677;50.942;4.028;2023-03-01T07:26:06;26.65;;;13.18;;
21036;SDS011;10677;50.942;4.028;2023-03-01T07:28:32;22.98;;;12.82;;
21036;SDS011;10677;50.942;4.028;2023-03-01T07:31:03;23.17;;;11.77;;
21036;SDS011;10677;50.942;4.028;2023-03-01T07:33:30;23.52;;;11.55;;
21036;SDS011;10677;50.942;4.028;2023-03-01T07:35:59;22.35;;;12.63;;
21036;SDS011;10677;50.942;4.028;2023-03-01T07:38:27;23.85;;;11.25;;
21036;SDS011;10677;50.942;4.028;2023-03-01T07:40:57;29.25;;;14.35;;
21036;SDS011;10677;50.942;4.028;2023-03-01T07:43:24;22.10;;;11.07;;
21036;SDS011;10677;50.942;4.028;2023-03-01T07:45:50;27.15;;;11.68;;
21036;SDS011;10677;50.942;4.028;2023-03-01T07:48:16;26.48;;;11.65;;
21036;SDS011;10677;50.942;4.028;2023-03-01T07:50:42;17.52;;;11.15;;
21036;SDS011;10677;50.942;4.028;2023-03-01T07:53:08;20.83;;;11.40;;
21036;SDS011;10677;50.942;4.028;2023-03-01T07:55:34;23.30;;;12.23;;
21036;SDS011;10677;50.942;4.028;2023-03-01T07:58:00;22.13;;;11.60;;
21036;SDS011;10677;50.942;4.028;2023-03-01T08:00:26;19.83;;;10.93;;
21036;SDS011;10677;50.942;4.028;2023-03-01T08:02:52;20.00;;;10.60;;
21036;SDS011;10677;50.942;4.028;2023-03-01T08:05:18;20.52;;;11.07;;
21036;SDS011;10677;50.942;4.028;2023-03-01T08:07:43;20.15;;;10.50;;
21036;SDS011;10677;50.942;4.028;2023-03-01T08:10:09;20.42;;;11.23;;
21036;SDS011;10677;50.942;4.028;2023-03-01T08:12:35;17.35;;;9.88;;
21036;SDS011;10677;50.942;4.028;2023-03-01T08:15:01;19.25;;;9.95;;
21036;SDS011;10677;50.942;4.028;2023-03-01T08:17:27;20.15;;;10.68;;
21036;SDS011;10677;50.942;4.028;2023-03-01T08:19:52;19.52;;;10.30;;
21036;SDS011;10677;50.942;4.028;2023-03-01T08:22:18;19.55;;;10.60;;
21036;SDS011;10677;50.942;4.028;2023-03-01T08:24:44;21.02;;;10.65;;
21036;SDS011;10677;50.942;4.028;2023-03-01T08:27:09;17.95;;;9.38;;
21036;SDS011;10677;50.942;4.028;2023-03-01T08:29:37;21.25;;;9.98;;
21036;SDS011;10677;50.942;4.028;2023-03-01T08:32:02;16.02;;;9.90;;
21036;SDS011;10677;50.942;4.028;2023-03-01T08:34:29;18.52;;;9.57;;
21036;SDS011;10677;50.942;4.028;2023-03-01T08:36:56;14.48;;;8.65;;
21036;SDS011;10677;50.942;4.028;2023-03-01T08:39:22;19.73;;;10.35;;
21036;SDS011;10677;50.942;4.028;2023-03-01T08:41:47;15.38;;;9.55;;
21036;SDS011;10677;50.942;4.028;2023-03-01T08:44:14;19.48;;;9.45;;
21036;SDS011;10677;50.942;4.028;2023-03-01T08:46:42;15.85;;;9.40;;
21036;SDS011;10677;50.942;4.028;2023-03-01T08:49:12;15.98;;;9.02;;
21036;SDS011;10677;50.942;4.028;2023-03-01T08:51:40;18.63;;;8.80;;
21036;SDS011;10677;50.942;4.028;2023-03-01T08:54:07;17.02;;;8.57;;
21036;SDS011;10677;50.942;4.028;2023-03-01T08:56:36;16.45;;;9.88;;
21036;SDS011;10677;50.942;4.028;2023-03-01T08:59:02;14.32;;;8.55;;
21036;SDS011;10677;50.942;4.028;2023-03-01T09:01:28;15.45;;;8.98;;
21036;SDS011;10677;50.942;4.028;2023-03-01T09:03:54;16.35;;;8.95;;
21036;SDS011;10677;50.942;4.028;2023-03-01T09:06:20;16.38;;;8.85;;
21036;SDS011;10677;50.942;4.028;2023-03-01T09:08:47;18.33;;;11.00;;
21036;SDS011;10677;50.942;4.028;2023-03-01T09:11:19;23.40;;;12.75;;
21036;SDS011;10677;50.942;4.028;2023-03-01T09:13:46;19.75;;;10.55;;
21036;SDS011;10677;50.942;4.028;2023-03-01T09:16:13;16.75;;;9.48;;
21036;SDS011;10677;50.942;4.028;2023-03-01T09:18:41;18.48;;;10.70;;
21036;SDS011;10677;50.942;4.028;2023-03-01T09:21:11;16.83;;;10.00;;
21036;SDS011;10677;50.942;4.028;2023-03-01T09:23:40;15.38;;;8.23;;
21036;SDS011;10677;50.942;4.028;2023-03-01T09:26:11;18.30;;;8.45;;
21036;SDS011;10677;50.942;4.028;2023-03-01T09:28:38;15.60;;;9.18;;
21036;SDS011;10677;50.942;4.028;2023-03-01T09:31:06;18.27;;;9.38;;
21036;SDS011;10677;50.942;4.028;2023-03-01T09:33:32;18.13;;;9.05;;
21036;SDS011;10677;50.942;4.028;2023-03-01T09:35:59;16.42;;;8.85;;
21036;SDS011;10677;50.942;4.028;2023-03-01T09:38:27;19.63;;;9.20;;
21036;SDS011;10677;50.942;4.028;2023-03-01T09:40:53;15.68;;;8.93;;
21036;SDS011;10677;50.942;4.028;2023-03-01T09:43:29;17.55;;;8.55;;
21036;SDS011;10677;50.942;4.028;2023-03-01T09:46:13;14.27;;;7.97;;
21036;SDS011;10677;50.942;4.028;2023-03-01T09:48:46;16.90;;;8.63;;
21036;SDS011;10677;50.942;4.028;2023-03-01T09:51:30;14.52;;;8.43;;
21036;SDS011;10677;50.942;4.028;2023-03-01T09:54:01;12.68;;;8.60;;
21036;SDS011;10677;50.942;4.028;2023-03-01T09:59:37;16.45;;;8.70;;
21036;SDS011;10677;50.942;4.028;2023-03-01T10:02:38;15.35;;;8.63;;
21036;SDS011;10677;50.942;4.028;2023-03-01T10:05:17;14.40;;;8.30;;
21036;SDS011;10677;50.942;4.028;2023-03-01T10:08:04;13.85;;;8.45;;
21036;SDS011;10677;50.942;4.028;2023-03-01T10:10:44;16.23;;;8.88;;
21036;SDS011;10677;50.942;4.028;2023-03-01T10:15:58;14.48;;;8.15;;
21036;SDS011;10677;50.942;4.028;2023-03-01T10:18:52;12.48;;;8.48;;
21036;SDS011;10677;50.942;4.028;2023-03-01T10:21:22;13.55;;;8.00;;
21036;SDS011;10677;50.942;4.028;2023-03-01T10:23:51;15.05;;;8.25;;
21036;SDS011;10677;50.942;4.028;2023-03-01T10:29:04;11.98;;;7.32;;
21036;SDS011;10677;50.942;4.028;2023-03-01T10:31:42;12.00;;;7.47;;
21036;SDS011;10677;50.942;4.028;2023-03-01T10:34:14;14.18;;;7.60;;
21036;SDS011;10677;50.942;4.028;2023-03-01T10:36:48;17.08;;;8.65;;
21036;SDS011;10677;50.942;4.028;2023-03-01T10:39:18;13.70;;;7.47;;
21036;SDS011;10677;50.942;4.028;2023-03-01T10:41:56;14.00;;;8.43;;
21036;SDS011;10677;50.942;4.028;2023-03-01T10:47:17;12.98;;;7.70;;
21036;SDS011;10677;50.942;4.028;2023-03-01T10:49:51;14.75;;;7.57;;
21036;SDS011;10677;50.942;4.028;2023-03-01T10:52:20;15.98;;;7.47;;
21036;SDS011;10677;50.942;4.028;2023-03-01T10:54:52;16.58;;;8.02;;
21036;SDS011;10677;50.942;4.028;2023-03-01T10:57:31;13.13;;;8.15;;
21036;SDS011;10677;50.942;4.028;2023-03-01T11:00:18;19.42;;;10.48;;
21036;SDS011;10677;50.942;4.028;2023-03-01T11:03:30;13.75;;;7.93;;
21036;SDS011;10677;50.942;4.028;2023-03-01T11:05:50;21.15;;;8.57;;
21036;SDS011;10677;50.942;4.028;2023-03-01T11:11:05;11.50;;;7.10;;
21036;SDS011;10677;50.942;4.028;2023-03-01T11:16:40;12.45;;;7.22;;
21036;SDS011;10677;50.942;4.028;2023-03-01T11:21:34;15.68;;;7.97;;
21036;SDS011;10677;50.942;4.028;2023-03-01T11:24:06;14.40;;;8.43;;
21036;SDS011;10677;50.942;4.028;2023-03-01T11:26:37;13.38;;;7.63;;
21036;SDS011;10677;50.942;4.028;2023-03-01T11:29:07;13.40;;;7.28;;
21036;SDS011;10677;50.942;4.028;2023-03-01T11:31:42;17.23;;;6.93;;
21036;SDS011;10677;50.942;4.028;2023-03-01T11:34:14;12.50;;;7.78;;
21036;SDS011;10677;50.942;4.028;2023-03-01T11:36:52;17.00;;;7.00;;
21036;SDS011;10677;50.942;4.028;2023-03-01T11:39:24;12.13;;;7.57;;
21036;SDS011;10677;50.942;4.028;2023-03-01T11:42:03;12.25;;;6.78;;
21036;SDS011;10677;50.942;4.028;2023-03-01T11:44:37;13.32;;;7.47;;
21036;SDS011;10677;50.942;4.028;2023-03-01T11:47:12;12.77;;;7.25;;
21036;SDS011;10677;50.942;4.028;2023-03-01T11:49:48;12.73;;;7.25;;
21036;SDS011;10677;50.942;4.028;2023-03-01T11:52:27;13.55;;;8.10;;
21036;SDS011;10677;50.942;4.028;2023-03-01T11:57:47;14.85;;;8.23;;
21036;SDS011;10677;50.942;4.028;2023-03-01T12:09:10;12.05;;;7.20;;
21036;SDS011;10677;50.942;4.028;2023-03-01T12:20:08;11.82;;;7.50;;
21036;SDS011;10677;50.942;4.028;2023-03-01T12:22:56;14.57;;;7.47;;
21036;SDS011;10677;50.942;4.028;2023-03-01T12:50:51;12.73;;;7.00;;
21036;SDS011;10677;50.942;4.028;2023-03-01T12:53:28;14.90;;;7.18;;
21036;SDS011;10677;50.942;4.028;2023-03-01T12:56:11;14.00;;;7.38;;
21036;SDS011;10677;50.942;4.028;2023-03-01T12:58:45;14.55;;;7.13;;
21036;SDS011;10677;50.942;4.028;2023-03-01T13:09:37;11.27;;;6.88;;
21036;SDS011;10677;50.942;4.028;2023-03-01T13:18:33;9.55;;;6.38;;
21036;SDS011;10677;50.942;4.028;2023-03-01T13:33:45;11.45;;;6.72;;
21036;SDS011;10677;50.942;4.028;2023-03-01T13:38:57;8.93;;;6.47;;
21036;SDS011;10677;50.942;4.028;2023-03-01T13:46:51;10.75;;;6.55;;
21036;SDS011;10677;50.942;4.028;2023-03-01T13:49:22;11.43;;;7.10;;
21036;SDS011;10677;50.942;4.028;2023-03-01T13:51:51;13.80;;;7.00;;
21036;SDS011;10677;50.942;4.028;2023-03-01T13:54:22;10.63;;;6.68;;
21036;SDS011;10677;50.942;4.028;2023-03-01T13:56:53;11.15;;;6.55;;
21036;SDS011;10677;50.942;4.028;2023-03-01T13:59:21;12.60;;;6.80;;
21036;SDS011;10677;50.942;4.028;2023-03-01T14:01:54;10.45;;;6.05;;
21036;SDS011;10677;50.942;4.028;2023-03-01T14:04:22;12.30;;;7.38;;
21036;SDS011;10677;50.942;4.028;2023-03-01T14:06:50;13.02;;;7.50;;
21036;SDS011;10677;50.942;4.028;2023-03-01T14:09:21;11.57;;;6.05;;
21036;SDS011;10677;50.942;4.028;2023-03-01T14:20:26;11.20;;;6.90;;
21036;SDS011;10677;50.942;4.028;2023-03-01T14:22:55;12.38;;;7.10;;
21036;SDS011;10677;50.942;4.028;2023-03-01T14:25:30;12.07;;;6.60;;
21036;SDS011;10677;50.942;4.028;2023-03-01T14:28:02;11.57;;;5.97;;
21036;SDS011;10677;50.942;4.028;2023-03-01T14:30:37;10.10;;;6.57;;
21036;SDS011;10677;50.942;4.028;2023-03-01T14:33:17;11.70;;;6.53;;
21036;SDS011;10677;50.942;4.028;2023-03-01T14:38:22;9.95;;;6.50;;
21036;SDS011;10677;50.942;4.028;2023-03-01T14:40:56;9.88;;;5.80;;
21036;SDS011;10677;50.942;4.028;2023-03-01T14:43:26;10.40;;;6.25;;
21036;SDS011;10677;50.942;4.028;2023-03-01T14:45:54;9.85;;;6.22;;
21036;SDS011;10677;50.942;4.028;2023-03-01T14:48:19;10.85;;;6.47;;
21036;SDS011;10677;50.942;4.028;2023-03-01T14:50:46;10.93;;;7.00;;
21036;SDS011;10677;50.942;4.028;2023-03-01T14:53:15;9.32;;;6.43;;
21036;SDS011;10677;50.942;4.028;2023-03-01T14:55:59;10.57;;;6.25;;
21036;SDS011;10677;50.942;4.028;2023-03-01T14:58:28;9.57;;;5.95;;
21036;SDS011;10677;50.942;4.028;2023-03-01T15:00:59;11.18;;;6.55;;
21036;SDS011;10677;50.942;4.028;2023-03-01T15:03:34;8.48;;;5.97;;
21036;SDS011;10677;50.942;4.028;2023-03-01T15:06:08;12.98;;;6.75;;
21036;SDS011;10677;50.942;4.028;2023-03-01T15:08:37;7.82;;;6.03;;
21036;SDS011;10677;50.942;4.028;2023-03-01T15:13:38;12.07;;;6.15;;
21036;SDS011;10677;50.942;4.028;2023-03-01T15:16:11;15.93;;;6.55;;
21036;SDS011;10677;50.942;4.028;2023-03-01T15:18:44;11.98;;;6.10;;
21036;SDS011;10677;50.942;4.028;2023-03-01T15:24:04;12.20;;;6.38;;
21036;SDS011;10677;50.942;4.028;2023-03-01T15:26:57;9.60;;;6.22;;
21036;SDS011;10677;50.942;4.028;2023-03-01T15:29:31;8.52;;;6.18;;
21036;SDS011;10677;50.942;4.028;2023-03-01T15:32:02;9.20;;;6.13;;
21036;SDS011;10677;50.942;4.028;2023-03-01T15:34:34;7.95;;;5.80;;
21036;SDS011;10677;50.942;4.028;2023-03-01T15:37:02;8.20;;;5.88;;
21036;SDS011;10677;50.942;4.028;2023-03-01T15:42:36;14.35;;;6.25;;
21036;SDS011;10677;50.942;4.028;2023-03-01T15:47:47;9.88;;;6.60;;
21036;SDS011;10677;50.942;4.028;2023-03-01T15:50:25;10.18;;;6.40;;
21036;SDS011;10677;50.942;4.028;2023-03-01T15:52:53;10.25;;;6.35;;
21036;SDS011;10677;50.942;4.028;2023-03-01T15:57:56;11.15;;;6.38;;
21036;SDS011;10677;50.942;4.028;2023-03-01T16:00:29;12.45;;;6.53;;
21036;SDS011;10677;50.942;4.028;2023-03-01T16:02:55;12.10;;;6.40;;
21036;SDS011;10677;50.942;4.028;2023-03-01T16:05:26;10.52;;;6.22;;
21036;SDS011;10677;50.942;4.028;2023-03-01T16:07:53;11.38;;;6.68;;
21036;SDS011;10677;50.942;4.028;2023-03-01T16:10:19;10.27;;;6.80;;
21036;SDS011;10677;50.942;4.028;2023-03-01T16:12:45;9.27;;;6.07;;
21036;SDS011;10677;50.942;4.028;2023-03-01T16:15:18;9.48;;;6.43;;
21036;SDS011;10677;50.942;4.028;2023-03-01T16:17:44;13.05;;;6.68;;
21036;SDS011;10677;50.942;4.028;2023-03-01T16:20:10;13.32;;;6.85;;
21036;SDS011;10677;50.942;4.028;2023-03-01T16:22:36;10.23;;;7.00;;
21036;SDS011;10677;50.942;4.028;2023-03-01T16:25:02;11.68;;;7.15;;
21036;SDS011;10677;50.942;4.028;2023-03-01T16:27:28;11.43;;;6.78;;
21036;SDS011;10677;50.942;4.028;2023-03-01T16:29:53;11.45;;;6.35;;
21036;SDS011;10677;50.942;4.028;2023-03-01T16:32:19;10.57;;;6.70;;
21036;SDS011;10677;50.942;4.028;2023-03-01T16:34:45;10.93;;;6.85;;
21036;SDS011;10677;50.942;4.028;2023-03-01T16:37:14;11.02;;;7.00;;
21036;SDS011;10677;50.942;4.028;2023-03-01T16:39:40;10.63;;;7.10;;
21036;SDS011;10677;50.942;4.028;2023-03-01T16:42:06;11.13;;;6.35;;
21036;SDS011;10677;50.942;4.028;2023-03-01T16:44:31;12.90;;;6.72;;
21036;SDS011;10677;50.942;4.028;2023-03-01T16:46:57;14.18;;;7.63;;
21036;SDS011;10677;50.942;4.028;2023-03-01T16:49:23;9.52;;;7.13;;
21036;SDS011;10677;50.942;4.028;2023-03-01T16:51:48;16.83;;;7.63;;
21036;SDS011;10677;50.942;4.028;2023-03-01T16:54:14;15.10;;;7.18;;
21036;SDS011;10677;50.942;4.028;2023-03-01T16:56:41;14.05;;;7.82;;